Date,TemperatureHighF,TemperatureAvgF,TemperatureLowF,DewpointHighF,DewpointAvgF,DewpointLowF,HumidityHigh,HumidityAvg,HumidityLow,PressureMaxIn,PressureMinIn,WindSpeedMaxMPH,WindSpeedAvgMPH,GustSpeedMaxMPH,PrecipitationSumIn
2013-1-1,80.0,62.7,50.0,63.0,57.1,49.0,99,85,53,30.24,30.06,2,0,8,0.00
2013-1-2,81.0,66.4,56.0,67.0,61.7,55.0,99,87,57,30.10,29.99,2,0,7,0.00
2013-1-3,78.0,64.3,56.0,69.0,62.0,56.0,99,93,69,30.17,30.04,1,0,5,0.00
2013-1-4,67.0,63.1,60.0,65.0,61.7,59.0,97,95,93,30.27,30.14,1,0,5,0.00
2013-1-5,76.0,65.9,58.0,68.0,62.4,56.0,99,89,73,30.29,30.19,1,0,6,0.21
2013-1-6,79.0,68.2,61.0,72.0,66.8,61.0,100,95,77,30.22,30.07,1,0,4,1.03
2013-1-7,69.0,65.9,60.0,66.0,64.1,60.0,100,94,87,30.22,30.12,2,0,8,0.93
2013-1-8,80.0,70.6,65.0,72.0,68.2,65.0,100,92,75,30.24,30.13,1,0,4,0.27
2013-1-9,82.0,72.5,67.0,74.0,69.9,66.0,100,92,74,30.31,30.20,1,0,7,0.01
2013-1-10,81.0,71.4,63.0,71.0,67.5,62.0,100,88,64,30.33,30.23,1,0,5,0.01
2013-1-11,82.0,68.9,61.0,71.0,65.2,61.0,100,89,65,30.29,30.18,1,0,7,0.01
2013-1-12,81.0,68.0,58.0,71.0,64.2,58.0,100,89,66,30.21,30.12,1,0,5,0.01
2013-1-13,81.0,68.3,59.0,69.0,64.2,59.0,100,88,62,30.18,30.09,1,0,6,0.01
2013-1-14,80.0,67.4,57.0,69.0,63.6,57.0,100,89,66,30.21,30.14,1,0,6,0.01
2013-1-15,80.0,68.4,60.0,70.0,64.9,59.0,99,89,68,30.17,30.08,1,0,5,0.00
2013-1-16,86.0,69.2,57.0,68.0,63.3,57.0,100,84,49,30.13,30.02,2,0,7,0.00
2013-1-17,83.0,67.6,55.0,70.0,62.1,48.0,99,84,54,30.10,29.92,5,1,16,0.00
2013-1-18,71.0,57.0,43.0,60.0,51.0,38.0,96,81,64,30.27,30.10,2,0,8,0.23
2013-1-19,73.0,67.0,63.0,65.0,63.1,59.0,96,87,77,30.27,30.15,2,0,8,0.24
2013-1-20,72.0,64.7,59.0,67.0,62.5,58.0,99,93,79,30.18,30.06,2,0,5,0.06
2013-1-21,78.0,64.9,59.0,68.0,62.5,58.0,99,92,72,30.10,30.01,0,0,4,0.04
2013-1-22,68.0,58.9,48.0,59.0,51.6,45.0,97,78,53,30.29,30.05,3,0,10,0.01
2013-1-23,70.0,54.5,44.0,53.0,46.9,41.0,97,77,51,30.37,30.28,1,0,6,0.00
2013-1-24,74.0,54.5,41.0,54.0,47.2,40.0,99,80,45,30.35,30.24,2,0,6,0.00
2013-1-25,80.0,59.3,47.0,60.0,52.5,46.0,99,82,42,30.34,30.19,2,0,6,0.00
2013-1-26,79.0,59.3,46.0,59.0,52.3,45.0,98,81,40,30.30,30.18,2,0,10,0.00
2013-1-27,78.0,62.7,49.0,66.0,57.3,49.0,100,85,56,30.33,30.24,1,0,5,0.07
2013-1-28,75.0,69.0,65.0,68.0,65.8,63.0,98,90,76,30.35,30.26,1,0,6,0.07
2013-1-29,80.0,69.8,60.0,71.0,65.8,60.0,100,88,70,30.27,30.14,2,0,6,0.00
2013-1-30,84.0,72.2,63.0,67.0,64.7,62.0,99,79,53,30.14,29.93,4,1,13,0.00
2013-1-31,69.0,58.7,43.0,65.0,45.7,37.0,93,65,33,30.22,29.95,3,1,13,0.05
2013-2-1,70.0,52.5,41.0,45.0,39.3,34.0,94,64,27,30.36,30.22,2,0,8,0.01
2013-2-2,73.0,54.1,40.0,54.0,46.3,38.0,98,78,48,30.32,30.16,1,0,6,0.00
2013-2-3,73.0,56.5,45.0,51.0,46.6,41.0,97,73,40,30.22,30.08,3,0,10,0.00
2013-2-4,73.0,54.5,40.0,52.0,45.7,38.0,98,75,44,30.16,30.04,1,0,5,0.00
2013-2-5,81.0,57.6,40.0,56.0,48.8,39.0,98,77,35,30.13,30.02,2,0,8,0.00
2013-2-6,79.0,65.4,53.0,67.0,60.0,52.0,97,84,57,30.14,30.05,1,0,4,0.00
2013-2-7,82.0,69.4,59.0,68.0,62.9,58.0,98,82,55,30.11,29.91,2,0,8,0.00
2013-2-8,82.0,68.0,58.0,65.0,61.1,56.0,98,81,42,30.08,29.88,3,0,10,0.00
2013-2-9,75.0,63.2,52.0,61.0,57.5,52.0,99,84,59,30.21,30.07,2,0,8,0.00
2013-2-10,77.0,67.0,60.0,61.0,58.5,56.0,93,76,57,30.29,30.20,2,0,8,0.00
2013-2-11,86.0,69.6,58.0,66.0,61.7,57.0,98,79,45,30.24,30.10,2,0,9,0.00
2013-2-12,87.0,72.1,59.0,69.0,64.6,58.0,99,80,49,30.13,29.95,3,0,9,0.00
2013-2-13,89.0,74.3,63.0,71.0,66.8,60.0,98,80,46,29.99,29.84,4,1,15,0.01
2013-2-14,70.0,62.5,59.0,66.0,61.1,58.0,99,95,85,30.06,29.95,1,0,6,1.03
2013-2-15,71.0,60.8,55.0,62.0,58.6,55.0,99,93,69,30.09,29.97,1,0,4,0.41
2013-2-16,70.0,58.6,48.0,58.0,48.0,33.0,98,71,39,30.09,29.90,6,1,17,0.01
2013-2-17,57.0,44.6,34.0,39.0,26.2,18.0,92,52,24,30.37,30.10,2,1,9,0.00
2013-2-18,67.0,49.6,33.0,52.0,41.1,29.0,95,75,50,30.38,30.27,2,0,6,0.00
2013-2-19,79.0,62.4,47.0,60.0,53.0,46.0,97,75,44,30.27,30.08,4,1,12,0.00
2013-2-20,75.0,62.9,52.0,63.0,58.0,51.0,98,85,66,30.16,30.04,1,0,6,0.00
2013-2-21,82.0,68.4,57.0,68.0,63.0,56.0,99,84,58,30.13,30.03,1,0,5,0.00
2013-2-22,83.0,70.8,59.0,73.0,67.1,58.0,100,89,67,30.12,30.02,2,0,6,0.00
2013-2-23,90.0,74.4,65.0,72.0,67.4,64.0,99,82,45,30.05,29.88,3,1,9,0.01
2013-2-24,84.0,71.2,67.0,71.0,67.5,65.0,98,89,59,29.99,29.91,3,0,9,0.01
2013-2-25,88.0,74.1,66.0,74.0,67.7,65.0,100,83,50,29.94,29.80,2,0,8,0.00
2013-2-26,84.0,74.8,66.0,73.0,69.4,63.0,96,84,59,29.88,29.76,4,1,16,0.00
2013-2-27,77.0,66.5,57.0,64.0,59.4,54.0,98,80,52,29.98,29.87,3,0,7,0.00
2013-2-28,77.0,62.0,49.0,53.0,49.0,43.0,96,66,37,30.02,29.88,2,0,8,0.00
2013-3-1,64.0,55.8,50.0,51.0,44.7,38.0,91,68,40,30.01,29.92,3,0,7,0.00
2013-3-2,60.0,49.7,41.0,43.0,37.2,31.0,81,63,34,30.06,29.96,5,1,15,0.00
2013-3-3,59.0,51.9,41.0,37.0,34.6,33.0,81,52,40,30.12,30.01,4,2,14,0.00
2013-3-4,67.0,52.1,31.0,43.0,35.1,27.0,97,58,28,30.27,30.15,2,0,8,0.00
2013-3-5,81.0,59.5,41.0,54.0,46.0,39.0,98,67,29,30.21,30.04,3,0,12,0.00
2013-3-6,73.0,60.5,46.0,61.0,42.5,24.0,96,59,16,30.14,29.96,6,2,16,0.01
2013-3-7,69.0,51.4,38.0,49.0,41.9,33.0,95,72,48,30.22,30.12,2,0,8,0.01
2013-3-8,72.0,54.7,41.0,53.0,46.2,40.0,99,78,38,30.25,30.15,2,0,6,0.00
2013-3-9,72.0,58.2,44.0,56.0,50.2,43.0,99,78,50,30.24,30.15,2,0,6,0.00
2013-3-10,76.0,62.7,50.0,60.0,54.8,49.0,97,78,50,30.20,30.11,2,0,7,0.00
2013-3-11,78.0,65.4,54.0,62.0,58.2,53.0,98,79,53,30.14,29.96,1,0,6,0.00
2013-3-12,75.0,67.8,60.0,70.0,63.9,57.0,96,88,79,30.02,29.91,4,1,12,0.16
2013-3-13,74.0,59.4,47.0,58.0,48.4,40.0,98,73,33,30.17,30.02,2,0,8,0.01
2013-3-14,65.0,53.1,43.0,47.0,42.2,38.0,94,70,42,30.26,30.15,2,1,9,0.00
2013-3-15,72.0,53.0,38.0,47.0,42.4,37.0,98,72,39,30.30,30.17,1,0,5,0.00
2013-3-16,82.0,59.6,41.0,55.0,47.6,40.0,99,71,29,30.22,30.07,2,0,8,0.00
2013-3-17,80.0,63.6,47.0,60.0,54.0,46.0,97,74,44,30.18,30.03,3,0,12,0.00
2013-3-18,80.0,70.8,62.0,67.0,63.1,59.0,94,78,60,30.09,29.90,3,0,13,0.00
2013-3-19,89.0,70.7,61.0,68.0,63.9,60.0,99,82,46,30.02,29.90,2,0,4,0.00
2013-3-20,78.0,70.0,62.0,70.0,64.4,57.0,99,84,65,29.98,29.80,3,0,12,0.00
2013-3-21,74.0,59.8,49.0,57.0,45.3,33.0,98,66,22,29.97,29.84,3,0,10,0.00
2013-3-22,77.0,58.6,41.0,63.0,51.6,40.0,98,81,45,30.04,29.93,1,0,5,0.36
2013-3-23,90.0,74.5,63.0,74.0,68.0,62.0,99,82,46,30.00,29.76,4,1,12,0.31
2013-3-24,88.0,72.2,66.0,72.0,68.1,63.0,99,89,55,29.89,29.65,7,1,23,0.59
2013-3-25,76.0,66.9,55.0,69.0,50.5,31.0,99,64,19,30.02,29.73,4,1,12,0.01
2013-3-26,64.0,52.6,44.0,43.0,33.3,26.0,73,50,24,30.24,30.02,6,1,14,0.01
2013-3-27,67.0,49.0,36.0,44.0,36.5,31.0,92,66,30,30.32,30.21,3,0,9,0.00
2013-3-28,70.0,53.0,39.0,47.0,41.1,34.0,96,69,30,30.31,30.21,1,0,5,0.00
2013-3-29,74.0,57.2,42.0,51.0,45.1,41.0,98,70,33,30.35,30.23,1,0,6,0.00
2013-3-30,78.0,60.9,45.0,56.0,50.7,44.0,98,73,45,30.29,30.15,2,0,8,0.00
2013-3-31,86.0,67.8,52.0,65.0,55.9,-99.9,96,72,38,30.21,30.03,3,1,11,0.00
2013-4-1,87.0,72.4,61.0,68.0,63.2,60.0,98,76,43,30.06,29.93,4,1,14,0.00
2013-4-2,82.0,70.0,59.0,64.0,61.4,58.0,99,77,46,30.09,30.01,2,0,8,0.00
2013-4-3,84.0,72.0,61.0,70.0,65.4,60.0,99,82,50,30.09,29.99,2,0,6,0.00
2013-4-4,74.0,69.5,64.0,71.0,67.9,63.0,97,94,90,30.07,29.89,3,0,15,0.37
2013-4-5,76.0,67.3,61.0,71.0,64.7,58.0,99,92,74,29.97,29.80,2,0,12,0.18
2013-4-6,78.0,65.4,53.0,63.0,58.5,52.0,96,80,54,30.14,29.97,3,0,12,0.02
2013-4-7,81.0,68.1,57.0,63.0,60.2,56.0,99,78,50,30.17,30.07,1,0,5,0.00
2013-4-8,82.0,69.2,56.0,67.0,61.1,55.0,99,78,48,30.16,30.08,1,0,5,0.00
2013-4-9,83.0,71.3,62.0,68.0,63.9,60.0,99,80,52,30.19,30.09,3,0,7,0.00
2013-4-10,84.0,71.1,58.0,72.0,66.0,57.0,100,85,63,30.14,30.02,2,0,7,0.00
2013-4-11,86.0,77.0,70.0,74.0,71.1,69.0,97,83,67,30.03,29.87,2,0,10,0.00
2013-4-12,91.0,82.1,74.0,75.0,71.7,68.0,94,72,52,29.93,29.83,4,2,15,0.00
2013-4-13,86.0,74.8,69.0,74.0,68.9,66.0,96,83,65,30.00,29.89,2,0,5,0.00
2013-4-14,84.0,75.6,70.0,76.0,71.7,65.0,98,88,70,30.00,29.85,5,0,15,2.15
2013-4-15,84.0,72.1,64.0,73.0,68.5,64.0,100,89,69,30.09,29.93,1,0,5,2.08
2013-4-16,83.0,75.0,67.0,74.0,69.8,66.0,100,85,66,30.16,30.05,2,0,7,0.01
2013-4-17,83.0,76.9,69.0,71.0,68.1,66.0,100,75,62,30.15,30.06,2,0,5,0.00
2013-4-18,86.0,75.2,64.0,74.0,69.2,63.0,99,83,64,30.09,29.99,1,0,9,0.00
2013-4-19,93.0,78.0,68.0,76.0,70.7,67.0,99,81,45,30.05,29.93,3,1,11,1.48
2013-4-20,73.0,68.7,64.0,73.0,67.0,62.0,100,94,81,30.13,29.98,2,0,6,1.48
2013-4-21,80.0,70.3,63.0,73.0,67.2,61.0,98,90,76,30.14,30.01,2,0,5,0.07
2013-4-22,78.0,71.1,66.0,72.0,68.1,64.0,99,91,71,30.08,29.98,3,0,9,0.07
2013-4-23,80.0,71.1,63.0,68.0,64.8,61.0,100,82,59,30.12,30.00,2,0,7,0.01
2013-4-24,83.0,70.1,59.0,68.0,62.5,58.0,100,80,55,30.16,30.08,2,0,7,0.00
2013-4-25,85.0,72.0,60.0,69.0,63.7,59.0,99,78,53,30.21,30.10,1,0,6,0.00
2013-4-26,85.0,72.9,62.0,69.0,65.6,61.0,99,80,54,30.24,30.16,1,0,6,0.00
2013-4-27,82.0,71.7,65.0,70.0,67.3,64.0,97,86,64,30.24,30.14,2,0,6,0.06
2013-4-28,82.0,72.9,64.0,68.0,64.9,63.0,96,77,60,30.15,30.03,2,0,8,0.01
2013-4-29,84.0,72.4,63.0,73.0,67.2,62.0,98,85,59,30.05,29.93,3,0,8,0.41
2013-4-30,82.0,73.4,68.0,74.0,69.5,67.0,99,88,74,30.02,29.95,1,0,5,0.05
2013-5-1,80.0,70.3,65.0,73.0,68.3,64.0,99,94,73,30.03,29.95,3,0,9,0.46
2013-5-2,77.0,70.7,65.0,72.0,68.5,65.0,99,93,81,29.98,29.83,1,0,10,1.48
2013-5-3,84.0,73.6,66.0,71.0,68.8,66.0,100,86,63,29.86,29.65,3,1,13,0.03
2013-5-4,87.0,73.6,67.0,70.0,67.8,66.0,96,83,57,29.80,29.69,3,0,9,0.01
2013-5-5,82.0,69.9,63.0,69.0,57.9,45.0,98,70,32,29.94,29.76,4,1,12,0.00
2013-5-6,83.0,68.9,57.0,63.0,56.6,52.0,96,68,37,30.01,29.91,4,1,12,0.00
2013-5-7,82.0,67.5,53.0,59.0,55.8,52.0,97,69,43,30.06,29.97,3,1,11,0.00
2013-5-8,86.0,69.8,57.0,64.0,59.6,56.0,98,73,40,30.14,30.03,3,0,9,0.00
2013-5-9,85.0,71.8,58.0,69.0,63.9,57.0,98,78,53,30.16,30.09,1,0,5,0.00
2013-5-10,89.0,74.2,64.0,74.0,67.1,-99.9,100,84,60,30.15,30.02,1,0,6,0.01
2013-5-11,90.0,75.1,68.0,74.0,70.2,67.0,99,87,51,30.08,29.97,3,0,7,0.69
2013-5-12,88.0,74.7,67.0,78.0,69.9,-99.9,100,89,59,30.05,29.95,2,0,8,0.29
2013-5-13,82.0,71.9,66.0,69.0,65.4,57.0,100,82,55,30.13,30.00,1,0,6,0.25
2013-5-14,81.0,68.9,56.0,62.0,58.3,55.0,98,72,48,30.21,30.12,2,0,10,0.00
2013-5-15,83.0,70.2,58.0,65.0,61.0,57.0,99,75,49,30.22,30.13,1,0,7,0.00
2013-5-16,83.0,66.3,60.0,66.0,41.9,-99.9,99,76,49,30.14,30.06,1,0,5,0.00
2013-5-17,85.0,73.3,62.0,70.0,61.7,-99.9,98,79,59,30.11,30.04,1,0,5,0.00
2013-5-18,87.0,75.9,65.0,75.0,70.3,64.0,99,84,63,30.12,30.05,1,0,6,0.00
2013-5-19,84.0,74.6,70.0,74.0,70.8,69.0,97,88,66,30.11,30.03,1,0,5,0.26
2013-5-20,85.0,74.6,68.0,75.0,70.6,67.0,99,88,62,30.10,30.01,1,0,5,0.07
2013-5-21,81.0,72.9,69.0,76.0,71.0,68.0,99,94,75,30.06,29.96,1,0,5,1.62
2013-5-22,81.0,72.2,67.0,77.0,71.1,67.0,100,97,83,29.99,29.92,2,0,9,1.43
2013-5-23,88.0,75.5,68.0,77.0,71.7,68.0,100,89,67,30.01,29.93,2,0,8,0.07
2013-5-24,92.0,78.0,67.0,76.0,70.2,65.0,100,80,43,30.10,29.97,2,0,7,0.06
2013-5-25,84.0,76.3,68.0,72.0,66.8,61.0,95,74,48,30.21,30.08,2,0,7,0.00
2013-5-26,82.0,72.5,60.0,66.0,63.0,59.0,97,74,53,30.23,30.16,1,0,4,0.00
2013-5-27,84.0,74.6,64.0,71.0,66.4,62.0,95,76,61,30.20,30.13,1,0,7,0.00
2013-5-28,83.0,76.9,73.0,75.0,71.4,68.0,91,83,75,30.16,30.10,1,0,6,0.21
2013-5-29,79.0,74.8,70.0,76.0,72.6,69.0,99,93,86,30.16,30.07,1,0,7,1.16
2013-5-30,85.0,77.7,73.0,76.0,72.2,69.0,98,84,61,30.14,30.06,2,0,8,0.05
2013-5-31,85.0,78.6,74.0,75.0,72.1,69.0,93,81,69,30.11,30.06,2,0,9,0.01
2013-6-1,86.0,78.4,74.0,77.0,74.0,71.0,99,87,73,30.08,29.99,1,0,9,0.17
2013-6-2,89.0,78.2,72.0,79.0,73.4,-99.9,100,90,65,30.03,29.91,1,0,6,0.84
2013-6-3,88.0,77.2,71.0,77.0,73.9,71.0,100,91,63,30.02,29.90,1,0,5,0.91
2013-6-4,84.0,77.3,73.0,75.0,72.7,71.0,99,87,67,30.05,29.95,2,0,7,0.02
2013-6-5,87.0,77.5,73.0,77.0,74.2,72.0,99,90,72,30.04,29.93,1,0,5,0.02
2013-6-6,80.0,74.9,72.0,78.0,73.8,70.0,99,97,92,29.93,29.73,5,0,18,2.23
2013-6-7,90.0,79.2,73.0,77.0,74.1,71.0,99,85,65,29.97,29.80,3,1,13,0.02
2013-6-8,89.0,77.1,71.0,78.0,73.5,71.0,99,90,63,30.10,29.96,1,0,7,0.18
2013-6-9,90.0,78.5,71.0,78.0,74.1,71.0,100,87,59,30.13,30.05,1,0,6,0.04
2013-6-10,91.0,79.8,74.0,79.0,75.6,73.0,99,88,68,30.11,30.03,1,0,5,0.00
2013-6-11,88.0,78.1,71.0,80.0,74.5,68.0,99,90,71,30.09,30.02,1,0,8,0.14
2013-6-12,93.0,79.3,69.0,79.0,72.8,69.0,100,82,53,30.09,30.02,2,0,7,0.04
2013-6-13,94.0,79.9,71.0,77.0,72.8,70.0,98,81,54,30.06,29.91,2,0,8,0.01
2013-6-14,94.0,82.1,73.0,76.0,73.4,70.0,98,77,49,29.95,29.85,3,1,10,0.00
2013-6-15,88.0,80.1,72.0,79.0,74.8,71.0,98,84,70,30.08,29.93,1,0,6,0.00
2013-6-16,90.0,82.2,76.0,78.0,75.8,74.0,94,82,67,30.10,30.04,1,0,6,0.00
2013-6-17,94.0,83.1,75.0,79.0,75.9,71.0,97,80,49,30.10,29.99,2,0,9,0.00
2013-6-18,94.0,82.9,73.0,78.0,74.5,72.0,99,78,52,30.08,29.96,2,0,9,0.00
2013-6-19,93.0,79.4,70.0,78.0,72.8,68.0,99,82,55,30.06,29.96,3,0,10,0.42
2013-6-20,90.0,77.0,72.0,78.0,73.5,71.0,99,90,62,30.10,30.03,1,0,6,0.62
2013-6-22,90.0,84.0,77.0,77.0,74.6,72.0,90,74,63,30.13,30.07,1,0,6,0.01
2013-6-23,86.0,77.0,72.0,78.0,74.3,72.0,99,92,76,30.16,30.08,1,0,5,0.14
2013-6-24,89.0,78.7,72.0,77.0,74.2,72.0,100,87,62,30.20,30.10,1,0,6,0.12
2013-6-25,89.0,80.0,72.0,77.0,74.2,71.0,99,84,63,30.16,30.06,1,0,5,0.00
2013-6-26,91.0,77.5,74.0,79.0,74.7,72.0,99,92,61,30.10,30.03,1,0,5,0.31
2013-6-27,92.0,78.5,71.0,79.0,74.1,71.0,100,88,60,30.07,29.94,1,0,6,0.11
2013-6-28,92.0,77.5,71.0,77.0,73.1,70.0,99,88,58,29.99,29.85,3,0,14,0.70
2013-6-29,90.0,78.0,72.0,78.0,74.1,71.0,100,89,62,29.92,29.83,4,0,9,0.22
2013-6-30,89.0,76.3,73.0,78.0,74.0,71.0,100,93,68,29.93,29.85,5,0,15,0.28
2013-7-1,87.0,74.9,72.0,78.0,73.5,71.0,99,96,73,30.04,29.90,2,0,10,0.50
2013-7-2,85.0,75.3,72.0,80.0,74.4,72.0,100,97,83,30.13,29.99,1,0,5,0.99
2013-7-3,88.0,78.4,73.0,79.0,75.1,72.0,100,90,74,30.16,30.07,2,0,10,0.03
2013-7-4,90.0,80.4,72.0,78.0,74.7,71.0,100,84,66,30.17,30.10,3,0,13,0.03
2013-7-5,89.0,79.6,74.0,79.0,74.9,73.0,96,87,67,30.17,30.09,2,0,9,0.09
2013-7-6,87.0,80.1,74.0,78.0,74.9,72.0,97,85,72,30.15,30.08,1,0,7,0.14
2013-7-7,89.0,80.7,73.0,78.0,75.2,72.0,99,85,65,30.15,30.06,2,0,7,0.11
2013-7-8,90.0,78.6,73.0,77.0,73.2,-99.9,100,87,62,30.18,30.10,1,0,5,0.00
2013-7-9,88.0,78.7,72.0,77.0,73.8,71.0,100,86,66,30.17,30.08,1,0,6,0.00
2013-7-10,91.0,77.8,72.0,77.0,70.2,-99.9,99,82,62,30.10,29.99,1,0,5,0.02
2013-7-11,92.0,77.8,72.0,78.0,73.8,72.0,100,89,60,30.06,29.94,2,0,9,1.65
2013-7-12,91.0,77.7,71.0,77.0,73.6,71.0,100,89,56,29.97,29.89,2,0,10,0.01
2013-7-13,89.0,75.2,71.0,78.0,73.0,70.0,99,94,66,30.02,29.92,1,0,8,0.11
2013-7-14,85.0,74.4,69.0,77.0,72.7,69.0,100,95,76,30.11,30.00,1,0,9,0.23
2013-7-15,87.0,75.9,69.0,78.0,72.9,69.0,100,91,69,30.13,30.04,1,0,6,0.01
2013-7-16,87.0,76.9,73.0,77.0,73.6,72.0,99,91,72,30.16,30.10,2,0,7,0.38
2013-7-17,84.0,76.4,73.0,78.0,74.0,71.0,100,93,77,30.16,30.09,1,0,5,0.05
2013-7-18,86.0,76.8,73.0,76.0,74.1,72.0,100,92,71,30.14,30.06,1,0,5,0.01
2013-7-19,90.0,77.3,72.0,80.0,74.3,71.0,99,91,70,30.14,30.05,2,0,10,0.09
2013-7-20,86.0,76.1,72.0,80.0,73.4,-99.9,100,93,78,30.12,30.04,2,0,12,1.04
2013-7-21,91.0,76.7,71.0,79.0,74.2,70.0,100,93,66,30.15,30.04,3,0,10,1.16
2013-7-22,92.0,76.6,71.0,80.0,74.1,71.0,100,93,60,30.14,30.06,2,0,7,1.21
2013-7-23,88.0,77.2,72.0,80.0,74.8,72.0,100,93,65,30.10,29.96,3,0,10,1.09
2013-7-24,88.0,77.4,72.0,78.0,75.1,71.0,100,93,69,30.02,29.91,3,0,10,0.34
2013-7-25,81.0,76.6,72.0,78.0,75.6,72.0,100,96,88,29.99,29.89,2,0,7,0.79
2013-7-26,90.0,79.2,74.0,79.0,75.5,73.0,100,90,64,30.01,29.95,2,0,10,0.14
2013-7-27,92.0,81.1,73.0,79.0,76.0,73.0,100,86,61,30.00,29.91,1,0,5,0.14
2013-7-28,93.0,80.7,75.0,79.0,75.4,73.0,100,86,52,30.07,29.94,2,0,8,0.12
2013-7-29,91.0,79.1,73.0,81.0,75.3,72.0,100,89,67,30.16,30.04,1,0,5,0.00
2013-7-30,91.0,80.6,74.0,81.0,76.2,74.0,100,88,64,30.18,30.11,1,0,5,0.00
2013-7-31,93.0,82.1,75.0,80.0,76.5,74.0,100,85,61,30.14,30.03,1,0,5,0.00
2013-8-1,92.0,80.4,74.0,79.0,75.0,73.0,98,85,61,30.08,29.97,1,0,7,0.00
2013-8-2,89.0,79.8,73.0,77.0,74.8,72.0,100,86,64,30.04,29.95,1,0,6,0.00
2013-8-3,88.0,77.9,71.0,79.0,74.5,70.0,100,90,69,30.12,30.01,3,0,15,0.94
2013-8-4,90.0,79.3,72.0,81.0,76.3,72.0,100,91,69,30.10,29.99,3,0,10,0.15
2013-8-5,93.0,79.5,73.0,80.0,76.4,72.0,100,91,58,30.03,29.93,3,0,8,1.03
2013-8-6,91.0,78.9,72.0,81.0,76.4,72.0,100,93,69,29.98,29.91,1,0,3,0.01
2013-8-7,91.0,82.0,75.0,80.0,77.4,75.0,100,87,67,29.99,29.93,1,0,6,0.00
2013-8-8,91.0,81.3,75.0,79.0,76.6,75.0,100,87,63,30.05,29.96,1,0,5,0.00
2013-8-9,91.0,81.6,76.0,78.0,75.4,72.0,97,82,62,30.09,29.98,1,0,4,0.00
2013-8-10,94.0,83.5,73.0,79.0,75.9,72.0,99,80,55,30.14,30.07,1,0,7,0.00
2013-8-11,92.0,82.0,74.0,79.0,76.0,74.0,100,84,59,30.16,30.09,1,0,7,0.00
2013-8-21,90.0,80.9,75.0,79.0,76.9,74.0,99,89,70,30.12,30.04,1,0,4,0.29
2013-8-22,86.0,79.9,76.0,80.0,77.4,76.0,100,92,77,30.10,30.00,0,0,3,0.14
2013-8-23,90.0,80.7,75.0,80.0,77.0,75.0,100,89,67,30.04,29.97,1,0,4,0.10
2013-8-24,91.0,79.3,74.0,81.0,75.6,73.0,99,89,62,30.11,30.01,1,0,3,0.16
2013-8-25,83.0,76.0,73.0,78.0,72.2,-99.9,99,92,80,30.18,30.08,0,0,4,0.21
2013-8-26,90.0,79.7,73.0,78.0,75.2,73.0,100,88,64,30.16,30.03,1,0,5,0.11
2013-8-27,88.0,77.9,73.0,76.0,73.4,72.0,100,88,61,30.08,30.01,1,0,5,0.11
2013-8-28,89.0,84.2,76.0,75.0,73.7,72.0,91,72,61,30.04,29.99,1,0,4,0.00
2013-9-9,90.0,79.7,72.0,77.0,74.1,72.0,100,84,63,30.04,29.93,1,0,5,0.06
2013-9-10,90.0,78.9,72.0,77.0,73.7,71.0,100,85,66,30.09,30.00,2,0,5,0.20
2013-9-11,89.0,78.7,71.0,78.0,74.4,70.0,100,88,66,30.09,30.01,1,0,5,0.01
2013-9-12,88.0,77.9,73.0,77.0,74.2,73.0,100,89,69,30.03,29.92,0,0,3,0.00
2013-9-13,91.0,78.7,72.0,78.0,74.1,72.0,100,87,62,29.92,29.81,0,0,3,0.00
2013-9-14,93.0,79.1,72.0,80.0,75.7,72.0,100,90,58,29.98,29.84,1,0,4,0.17
2013-9-15,84.0,74.6,73.0,79.0,71.4,-99.9,100,95,86,30.09,29.97,1,0,5,0.47
2013-9-20,87.0,78.3,70.0,72.0,70.8,69.0,99,80,61,30.04,29.93,1,0,6,0.01
2013-9-21,89.0,77.7,70.0,73.0,71.3,69.0,98,83,59,29.95,29.79,0,0,3,0.00
2013-9-22,91.0,76.8,71.0,77.0,69.7,-99.9,99,84,58,29.86,29.76,2,0,9,0.00
2013-9-23,89.0,76.0,71.0,78.0,74.0,71.0,100,94,66,29.99,29.85,0,0,3,1.71
2013-9-24,84.0,77.0,73.0,79.0,75.0,71.0,100,94,77,29.97,29.86,2,0,8,0.04
2013-9-25,84.0,77.2,72.0,75.0,72.5,71.0,100,86,68,29.86,29.80,4,1,14,0.02
2013-9-26,93.0,79.8,73.0,79.0,74.6,72.0,99,86,53,29.86,29.76,4,1,11,0.00
2013-9-27,75.0,71.9,70.0,72.0,70.4,69.0,98,96,91,29.86,29.86,0,0,1,0.00
2013-10-2,88.0,77.4,70.0,74.0,71.7,69.0,99,84,62,30.07,30.01,1,0,4,0.00
2013-10-3,89.0,76.7,68.0,75.0,70.9,67.0,100,84,59,30.08,29.99,1,0,4,0.00
2013-10-4,88.0,77.5,70.0,76.0,71.9,69.0,100,84,61,30.09,30.01,1,0,4,0.00
2013-10-5,88.0,77.4,70.0,76.0,72.7,69.0,100,87,66,30.07,29.97,1,0,4,0.00
2013-10-6,90.0,78.5,70.0,76.0,73.3,70.0,100,86,63,29.99,29.89,1,0,5,0.00
2013-10-7,88.0,76.8,72.0,77.0,73.3,71.0,98,90,63,29.90,29.80,2,0,9,0.01
2013-10-8,89.0,78.4,73.0,77.0,73.1,71.0,99,86,58,29.93,29.81,3,1,13,0.01
2013-10-9,84.0,75.3,68.0,74.0,71.9,67.0,99,89,71,30.03,29.90,2,0,6,0.03
2013-10-10,85.0,73.3,65.0,72.0,68.0,64.0,100,85,61,30.05,29.98,1,0,7,0.00
2013-10-18,89.0,75.2,67.0,75.0,71.0,67.0,100,88,62,30.00,29.92,1,0,4,0.00
2013-10-19,91.0,77.3,68.0,78.0,72.6,68.0,100,87,56,29.98,29.88,1,0,5,0.00
2013-10-20,88.0,77.3,73.0,77.0,71.6,-99.9,99,86,68,29.97,29.88,1,0,6,0.00
2013-10-21,91.0,79.0,72.0,78.0,74.8,72.0,100,88,61,30.01,29.91,1,0,5,0.06
2013-10-22,92.0,79.6,75.0,77.0,74.6,73.0,97,86,57,29.97,29.82,2,0,9,0.01
2013-10-23,85.0,74.9,67.0,73.0,69.0,61.0,98,83,54,30.00,29.81,2,0,7,0.00
2013-10-24,75.0,67.2,61.0,63.0,58.8,51.0,93,75,66,30.16,30.00,1,0,4,0.00
2013-10-25,80.0,69.2,60.0,64.0,60.4,57.0,99,76,51,30.22,30.16,1,0,4,0.00
2013-10-26,83.0,66.9,56.0,63.0,58.3,55.0,99,77,42,30.20,30.10,1,0,5,0.00
2013-10-27,80.0,65.0,55.0,64.0,56.1,-99.9,100,79,51,30.14,30.07,1,0,5,0.00
2013-10-28,83.0,68.2,58.0,67.0,60.0,-99.9,98,81,57,30.19,30.10,1,0,5,0.00
2013-10-29,85.0,71.2,61.0,69.0,64.5,60.0,99,82,56,30.22,30.14,1,0,5,0.00
2013-10-30,85.0,74.3,65.0,72.0,67.6,64.0,98,81,59,30.23,30.13,1,0,5,0.00
2013-10-31,86.0,74.0,66.0,72.0,68.0,64.0,99,83,57,30.14,30.01,1,0,7,0.00
2013-11-1,91.0,77.6,70.0,74.0,70.5,68.0,99,81,52,30.03,29.87,2,0,11,0.00
2013-11-2,84.0,70.6,65.0,71.0,66.6,63.0,99,88,59,29.95,29.82,3,0,11,0.00
2013-11-3,78.0,71.1,58.0,61.0,55.0,49.0,96,60,39,30.10,30.00,3,1,8,0.00
2013-11-4,79.0,72.9,64.0,67.0,61.4,53.0,96,68,53,30.16,30.08,2,0,9,0.08
2013-11-5,71.0,71.0,71.0,66.0,66.0,66.0,85,85,85,30.13,30.13,1,1,4,0.00
2013-11-30,78.0,64.9,59.0,69.0,60.3,-99.9,99,89,65,30.29,30.18,2,0,6,0.15
2013-12-1,68.0,64.8,62.0,67.0,64.4,61.0,100,98,95,30.17,30.00,0,0,2,0.35
2013-12-2,72.0,63.9,57.0,64.0,61.5,56.0,100,93,69,29.98,29.83,2,0,6,0.03
2013-12-3,79.0,65.9,56.0,66.0,61.0,56.0,99,86,59,30.01,29.91,1,0,4,0.00
2013-12-4,83.0,69.5,60.0,69.0,64.5,59.0,100,86,55,30.10,30.00,2,0,7,0.00
2013-12-5,81.0,70.2,60.0,71.0,66.6,59.0,99,89,71,30.20,30.10,0,0,3,0.00
2013-12-6,83.0,72.5,67.0,74.0,69.6,66.0,99,91,69,30.20,30.12,1,0,6,0.10
2013-12-7,83.0,68.7,61.0,72.0,64.2,-99.9,100,89,68,30.25,30.16,1,0,3,0.01
2013-12-8,83.0,75.2,67.0,71.0,68.7,67.0,99,82,66,30.24,30.14,1,0,6,0.00
2013-12-9,85.0,72.8,64.0,73.0,67.5,63.0,99,85,62,30.21,30.11,1,0,6,0.00
2013-12-10,87.0,72.0,61.0,72.0,65.4,60.0,99,82,51,30.18,30.08,2,0,9,0.00
2013-12-19,77.0,57.9,45.0,61.0,52.8,44.0,98,86,56,30.29,30.20,1,0,4,0.01
2013-12-20,82.0,66.4,51.0,66.0,59.6,50.0,99,82,51,30.24,30.14,1,0,5,0.01
2013-12-21,82.0,70.0,63.0,74.0,65.4,-99.9,99,90,75,30.17,30.07,1,0,7,0.00
2013-12-22,87.0,74.6,67.0,74.0,69.9,66.0,100,87,55,30.17,30.10,2,0,7,0.01
2013-12-23,87.0,74.4,65.0,74.0,69.4,64.0,99,86,57,30.19,30.09,2,0,10,0.01
2013-12-24,72.0,64.4,55.0,69.0,59.7,43.0,98,86,48,30.24,30.11,2,0,8,0.05
2013-12-25,74.0,68.2,51.0,61.0,58.9,50.0,95,73,61,30.24,30.17,1,0,5,0.00